TimeEST,TemperatureF,Dew PointF,Humidity,Sea Level PressureIn,VisibilityMPH,Wind Direction,Wind SpeedMPH,Gust SpeedMPH,PrecipitationIn,Events,Conditions,WindDirDegrees,DateUTC
12:54 AM,33.1,27.0,78,30.16,10.0,Calm,Calm,-,N/A,,Clear,0,2012-11-06 05:54:00
1:54 AM,34.0,27.0,75,30.17,10.0,NE,5.8,-,N/A,,Clear,40,2012-11-06 06:54:00
2:54 AM,35.1,26.1,70,30.16,10.0,NNE,9.2,-,N/A,,Clear,20,2012-11-06 07:54:00
3:54 AM,33.1,26.1,75,30.15,10.0,North,5.8,-,N/A,,Clear,10,2012-11-06 08:54:00
4:54 AM,33.1,25.0,72,30.16,10.0,NNE,8.1,-,N/A,,Clear,20,2012-11-06 09:54:00
5:42 AM,32.0,24.8,75,30.15,10.0,NNE,5.8,-,N/A,,Mostly Cloudy,30,2012-11-06 10:42:00
5:54 AM,33.1,26.1,75,30.16,10.0,NE,8.1,-,N/A,,Overcast,40,2012-11-06 10:54:00
6:54 AM,34.0,26.1,73,30.17,10.0,NNE,3.5,-,N/A,,Overcast,30,2012-11-06 11:54:00
7:54 AM,34.0,26.1,73,30.21,10.0,Calm,Calm,-,N/A,,Overcast,0,2012-11-06 12:54:00
8:54 AM,35.1,27.0,72,30.20,10.0,NNE,6.9,-,N/A,,Overcast,20,2012-11-06 13:54:00
9:54 AM,37.0,28.0,70,30.19,10.0,NNE,6.9,-,N/A,,Overcast,20,2012-11-06 14:54:00
10:54 AM,39.0,28.0,65,30.17,10.0,NNE,4.6,-,N/A,,Mostly Cloudy,30,2012-11-06 15:54:00
11:30 AM,39.2,28.4,65,30.14,10.0,NNE,4.6,-,N/A,,Scattered Clouds,20,2012-11-06 16:30:00
11:50 AM,39.2,28.4,65,30.13,10.0,NNE,3.5,-,N/A,,Mostly Cloudy,20,2012-11-06 16:50:00
11:54 AM,39.9,28.0,63,30.14,10.0,Variable,5.8,-,N/A,,Mostly Cloudy,0,2012-11-06 16:54:00
12:15 PM,39.2,28.4,65,30.12,10.0,Calm,Calm,-,N/A,,Scattered Clouds,0,2012-11-06 17:15:00
12:54 PM,41.0,28.0,60,30.11,10.0,Calm,Calm,-,N/A,,Clear,0,2012-11-06 17:54:00
1:54 PM,41.0,28.0,60,30.09,10.0,Calm,Calm,-,N/A,,Clear,0,2012-11-06 18:54:00
2:54 PM,41.0,28.0,60,30.07,10.0,Calm,Calm,-,N/A,,Clear,0,2012-11-06 19:54:00
3:54 PM,41.0,28.0,60,30.06,10.0,East,3.5,-,N/A,,Clear,80,2012-11-06 20:54:00
4:54 PM,39.9,27.0,60,30.04,10.0,NNE,5.8,-,N/A,,Mostly Cloudy,20,2012-11-06 21:54:00
5:54 PM,39.0,28.0,65,30.04,10.0,Calm,Calm,-,N/A,,Clear,0,2012-11-06 22:54:00
6:54 PM,39.0,28.9,67,30.04,10.0,Calm,Calm,-,N/A,,Overcast,0,2012-11-06 23:54:00
7:54 PM,37.9,28.9,70,30.04,10.0,Calm,Calm,-,N/A,,Partly Cloudy,0,2012-11-07 00:54:00
8:54 PM,37.9,28.9,70,30.04,10.0,Calm,Calm,-,N/A,,Overcast,0,2012-11-07 01:54:00
9:54 PM,37.9,28.9,70,30.03,10.0,Calm,Calm,-,N/A,,Overcast,0,2012-11-07 02:54:00
10:54 PM,37.9,28.0,68,30.01,10.0,NNE,6.9,-,N/A,,Mostly Cloudy,20,2012-11-07 03:54:00
11:54 PM,37.0,28.0,70,29.98,10.0,North,4.6,-,N/A,,Scattered Clouds,10,2012-11-07 04:54:00